FR-0077 weather

Centre Hospitalier Heliport
Pontarlier, Bourgogne-Franche-Comté, France

Public forecast

Using degrees Celsius for public forecast. Weather courtesy of forecast.io.

Closest aviation weather report (METAR) to Centre Hospitalier Heliport

Closest report is Les Eplatures Airport, 20.9 nm (38.7 km) ENE. Retrieved 2020/08/08 08:50 UTC (19 minutes ago):

LSGC 080850Z VRB02KT CAVOK 25/13 Q1024

Closest aviation forecast (TAF) to Centre Hospitalier Heliport

Forecast is more than 12 hours old.

Closest forecast is Payerne Air Base, 23.1 nm (42.7 km) E. Retrieved 2020/08/07 17:00 UTC (16 hours ago):

TAF LSMP 071625Z 0717/0823 VRB03KT CAVOK